This is the latest recevied weather packets stored in our database for station/object SQ5LTL-2. If no packets are shown the sender has not sent any weather packets the latest 10 day(s).
| Time | Temp. | Humidity | Pressure | Rain* | Wind** | Luminosity | Snow |
|---|---|---|---|---|---|---|---|
| 1778159724 | 18.89° C | 67% | 1012.1 hPa | 0 mm | - | 247 W/m² | - |
| 1778159423 | 19.44° C | 67% | 1012.1 hPa | 0 mm | - | 263 W/m² | - |
| 1778159121 | 18.89° C | 68% | 1012.1 hPa | 0 mm | - | 278 W/m² | - |
| 1778158820 | 18.89° C | 68% | 1011.9 hPa | 0 mm | - | 345 W/m² | - |
| 1778158520 | 18.89° C | 68% | 1011.9 hPa | 0 mm | - | 297 W/m² | - |
| 1778158216 | 19.44° C | 67% | 1012 hPa | 0 mm | - | 340 W/m² | - |
| 1778157935 | 19.44° C | 67% | 1011.8 hPa | 0 mm | - | 464 W/m² | - |
| 1778157635 | 19.44° C | 67% | 1011.8 hPa | 0 mm | - | 367 W/m² | - |
| 1778157334 | 19.44° C | 66% | 1011.7 hPa | 0 mm | - | 373 W/m² | - |
| 1778157032 | 20° C | 66% | 1011.8 hPa | 0 mm | - | 342 W/m² | - |
| 1778156730 | 19.44° C | 66% | 1011.7 hPa | 0 mm | - | 369 W/m² | - |
| 1778156429 | 20° C | 66% | 1011.8 hPa | 0 mm | - | 327 W/m² | - |
| 1778156127 | 19.44° C | 68% | 1011.7 hPa | 0 mm | - | 400 W/m² | - |
| 1778155825 | 19.44° C | 68% | 1011.6 hPa | 0 mm | - | 309 W/m² | - |
| 1778155523 | 19.44° C | 68% | 1011.5 hPa | 0 mm | - | 314 W/m² | - |
| 1778155224 | 20° C | 67% | 1011.4 hPa | 0 mm | - | 272 W/m² | - |
| 1778154921 | 20° C | 67% | 1011.5 hPa | 0 mm | - | 273 W/m² | - |
| 1778154620 | 20.56° C | 66% | 1011.4 hPa | 0 mm | - | 250 W/m² | - |
| 1778154319 | 20° C | 67% | 1011.3 hPa | 0 mm | - | 422 W/m² | - |
| 1778154016 | 20.56° C | 65% | 1011.3 hPa | 0 mm | - | 275 W/m² | - |
| 1778153735 | 21.11° C | 61% | 1011.2 hPa | 0 mm | - | 175 W/m² | - |
| 1778153433 | 22.22° C | 59% | 1011 hPa | 0 mm | - | 163 W/m² | - |
| 1778153132 | 21.67° C | 59% | 1011 hPa | 0 mm | - | 237 W/m² | - |
| 1778152830 | 21.67° C | 59% | 1011 hPa | 0 mm | - | 354 W/m² | - |
| 1778152529 | 21.11° C | 59% | 1011 hPa | 0 mm | - | 274 W/m² | - |
* Rain latest hour (hover to see other rain measurements)
** Current wind speed in m/s (hover to see current wind gust speed)